Sandy, OR

5:41 PM PDT on April 24, 2017 (GMT -0700)
Sandy City Center | | Change Station

Elev 948 ft 45.40 °N, 122.27 °W | Updated 3 seconds ago

Rain
Rain
46.0 °F
Feels Like 46 °F
N
1.1
Wind Variable Wind from SSW
Gusts 2.5 mph

Today
High -- | Low -- °F
--% Chance of Precip.
Yesterday
High -- | Low -- °F
Precip. -- in
Pressure 29.79 in
Visibility 10.0 miles
Clouds Few 1800 ft
Scattered Clouds 2900 ft
Overcast 3900 ft
Windchill 46 °F
Dew Point 46 °F
Humidity 99%
Rainfall 0.83 in
Snow Depth Not available.
6:07 AM 8:07 PM
Waning Crescent, 3% visible
METAR KTTD 242353Z 31009G16KT 10SM FEW018 SCT029 OVC039 12/07 A2979 RMK AO2 LTG DSNT SE SLP088 60043 T01170067 10122 20078 53037
Pressure 29.79 in
Visibility 10.0 miles
Clouds Few 1800 ft
Scattered Clouds 2900 ft
Overcast 3900 ft
Windchill 46 °F
Dew Point 46 °F
Humidity 99%
Rainfall 0.83 in
Snow Depth Not available.
6:07 AM 8:07 PM
Waning Crescent, 3% visible
METAR KTTD 242353Z 31009G16KT 10SM FEW018 SCT029 OVC039 12/07 A2979 RMK AO2 LTG DSNT SE SLP088 60043 T01170067 10122 20078 53037

Get Severe Weather Alerts

Thanks for signing up!

Be on the lookout for a verification email in your inbox.

You'll start receiving the daily forecast at 8 AM.

×

10-Day Weather Forecast

Almanac

Astronomy

Apr. 24, 2017 Rise Set
Actual Time
Civil Twilight
Nautical Twilight
Astronomical Twilight
Moon
Length of Visible Light
Length of Day
Tomorrow will be .
, % of the Moon is Illuminated

Today's Extremes

State Highs State Lows

Community

WunderPhotos

WunderBlog® & News

Nearby

Air Quality

  Air Quality AQ Index Pollutant
Not available.

Snow Depth

Station Depth Elevation

Earthquake Activity

City Distance Mag. Time & Date
Minimum magnitude displayed is 2.5.

Coastal Water Temperatures

Place Temperature

Stations

Nearby Weather Stations

Station Location Temp. Windchill Dew Point Humidity Wind Precip. Elev Updated Type
                   

Watches & Warnings

There are currently no watches in effect.